Terminal Aerodrome Forecast
Issued by NWS

Home | Current Version | Previous Version | Text Only | Print | Product List | Glossary On
Versions: 1 2 3 4 5 6 7 8 9 10 11 12 13 14 15 16
921
FTUS46 KPDT 252320
TAFRDM
TAF
KRDM 252320Z 2600/2624 34009KT P6SM FEW070 SCT200
     FM260600 16005KT P6SM FEW100 BKN200
     FM261700 18010KT P6SM -SHRA SCT025 OVC040
     FM262200 19010KT P6SM VCSH SCT040 BKN060=

USA.gov is the U.S. government's official web portal to all federal, state and local government web resources and services.